La plateforme de Tours Sorigny


Adresse :

Aérodrome de Tours-Sorigny

RD 910

37250 SORIGNY


Carte VAC :

https://www.sia.aviation-civile.gouv.fr/dvd/eAIP_19_JUL_2018/Atlas-VAC/PDF_AIPparSSection/VAC/AD/AD-2.LFEN.pdf

METAR / TAF:

LFOT 211400Z AUTO 24006KT 200V280 CAVOK 16/08 Q1028 NOSIG

TAF TAF LFOT 211100Z 2112/2212 VRB03KT CAVOK BECMG 2200/2202 3000 BR PROB40 TEMPO 2204/2209 0500 BCFG BECMG 2209/2211 CAVOK